createdAt,value
2023-05-05T00:00:21.544Z,2875.00
2023-05-05T00:01:21.549Z,2886.00
2023-05-05T00:02:21.575Z,2886.00
2023-05-05T00:03:21.664Z,2887.00
2023-05-05T00:04:21.589Z,2888.00
2023-05-05T00:05:21.571Z,2888.00
2023-05-05T00:06:21.554Z,2889.00
2023-05-05T00:07:21.570Z,2891.00
2023-05-05T00:08:21.557Z,2907.00
2023-05-05T00:09:21.565Z,2885.00
2023-05-05T00:10:21.563Z,2904.00
2023-05-05T00:11:21.577Z,2903.00
2023-05-05T00:12:21.582Z,2874.00
2023-05-05T00:13:21.582Z,2870.00
2023-05-05T00:14:21.585Z,2887.00
2023-05-05T00:15:21.603Z,2865.00
2023-05-05T00:16:21.646Z,2877.00
2023-05-05T00:17:21.609Z,2878.00
2023-05-05T00:18:21.605Z,2873.00
2023-05-05T00:19:21.604Z,2888.00
2023-05-05T00:20:21.614Z,2884.00
2023-05-05T00:21:21.612Z,2862.00
2023-05-05T00:22:21.619Z,2896.00
2023-05-05T00:23:21.645Z,2898.00
2023-05-05T00:24:21.640Z,2918.00
2023-05-05T00:25:21.653Z,2885.00
2023-05-05T00:26:21.654Z,2890.00
2023-05-05T00:27:21.670Z,2890.00
2023-05-05T00:28:21.677Z,2869.00
2023-05-05T00:29:21.694Z,2852.00
2023-05-05T00:30:21.697Z,2881.00
2023-05-05T00:31:21.775Z,2886.00
2023-05-05T00:32:21.778Z,2891.00
2023-05-05T00:33:21.719Z,2892.00
2023-05-05T00:34:21.725Z,2887.00
2023-05-05T00:35:21.740Z,2896.00
2023-05-05T00:36:21.754Z,2892.00
2023-05-05T00:37:21.765Z,2899.00
2023-05-05T00:38:21.779Z,2895.00
2023-05-05T00:39:21.787Z,2885.00
2023-05-05T00:40:21.801Z,2874.00
2023-05-05T00:41:21.810Z,2877.00
2023-05-05T00:42:21.824Z,2880.00
2023-05-05T00:43:21.829Z,2870.00
2023-05-05T00:44:21.835Z,2866.00
2023-05-05T00:45:21.848Z,2867.00
2023-05-05T00:46:21.897Z,2858.00
2023-05-05T00:47:21.853Z,2855.00
2023-05-05T00:48:21.860Z,2866.00
2023-05-05T00:49:21.864Z,2854.00
2023-05-05T00:50:21.861Z,2844.00
2023-05-05T00:51:21.870Z,2870.00
2023-05-05T00:52:21.885Z,2855.00
2023-05-05T00:53:21.878Z,2853.00
2023-05-05T00:54:21.875Z,2852.00
2023-05-05T00:55:21.892Z,2859.00
2023-05-05T00:56:21.903Z,2846.00
2023-05-05T00:57:21.889Z,2839.00
2023-05-05T00:58:21.897Z,2831.00
2023-05-05T00:59:21.898Z,2821.00
2023-05-05T01:00:21.898Z,2832.00
2023-05-05T01:01:21.933Z,2814.00
2023-05-05T01:02:21.932Z,2818.00
2023-05-05T01:03:21.976Z,2821.00
2023-05-05T01:04:21.928Z,2816.00
2023-05-05T01:05:21.933Z,2819.00
2023-05-05T01:06:21.942Z,2815.00
2023-05-05T01:07:21.950Z,2826.00
2023-05-05T01:08:21.952Z,2797.00
2023-05-05T01:09:21.957Z,2806.00
2023-05-05T01:10:22.363Z,2779.00
2023-05-05T01:11:21.982Z,2783.00
2023-05-05T01:12:21.979Z,2790.00
2023-05-05T01:13:21.980Z,2781.00
2023-05-05T01:14:21.988Z,2802.00
2023-05-05T01:15:21.996Z,2801.00
2023-05-05T01:16:22.189Z,2782.00
2023-05-05T01:17:22.027Z,2804.00
2023-05-05T01:18:22.017Z,2782.00
2023-05-05T01:19:22.047Z,2772.00
2023-05-05T01:20:22.057Z,2791.00
2023-05-05T01:21:22.066Z,2784.00
2023-05-05T01:22:22.075Z,2777.00
2023-05-05T01:23:22.086Z,2767.00
2023-05-05T01:24:22.096Z,2777.00
2023-05-05T01:25:22.109Z,2748.00
2023-05-05T01:26:22.132Z,2755.00
2023-05-05T01:27:22.144Z,2749.00
2023-05-05T01:28:22.145Z,2750.00
2023-05-05T01:29:22.164Z,2753.00
2023-05-05T01:30:22.172Z,2755.00
2023-05-05T01:31:22.217Z,2770.00
2023-05-05T01:32:22.251Z,2761.00
2023-05-05T01:33:22.223Z,2752.00
2023-05-05T01:34:22.235Z,2755.00
2023-05-05T01:35:22.252Z,2755.00
2023-05-05T01:36:22.252Z,2767.00
2023-05-05T01:37:22.272Z,2765.00
2023-05-05T01:38:22.265Z,2757.00
2023-05-05T01:39:22.277Z,2733.00
2023-05-05T01:40:22.289Z,2727.00
2023-05-05T01:41:22.300Z,2729.00
2023-05-05T01:42:22.318Z,2730.00
2023-05-05T01:43:22.330Z,2736.00
2023-05-05T01:44:22.326Z,2737.00
2023-05-05T01:45:22.341Z,2706.00
2023-05-05T01:46:22.481Z,2688.00
2023-05-05T01:47:22.375Z,2690.00
2023-05-05T01:48:22.371Z,2689.00
2023-05-05T01:49:22.382Z,2696.00
2023-05-05T01:50:22.402Z,2696.00
2023-05-05T01:51:22.412Z,2711.00
2023-05-05T01:52:22.425Z,2700.00
2023-05-05T01:53:22.425Z,2715.00
2023-05-05T01:54:22.439Z,2694.00
2023-05-05T01:55:22.447Z,2697.00
2023-05-05T01:56:22.459Z,2684.00
2023-05-05T01:57:22.463Z,2688.00
2023-05-05T01:58:22.485Z,2660.00
2023-05-05T01:59:22.491Z,2671.00
2023-05-05T02:00:22.510Z,2665.00
2023-05-05T02:01:22.573Z,2647.00
2023-05-05T02:02:22.559Z,2661.00
2023-05-05T02:03:22.604Z,2652.00
2023-05-05T02:04:22.716Z,2641.00
2023-05-05T02:05:22.579Z,2622.00
2023-05-05T02:06:22.583Z,2644.00
2023-05-05T02:07:22.613Z,2632.00
2023-05-05T02:08:22.635Z,2622.00
2023-05-05T02:09:22.636Z,2616.00
2023-05-05T02:10:22.643Z,2662.00
2023-05-05T02:11:22.655Z,2643.00
2023-05-05T02:12:22.667Z,2632.00
2023-05-05T02:13:22.728Z,2602.00
2023-05-05T02:14:22.698Z,2631.00
2023-05-05T02:15:22.707Z,2617.00
2023-05-05T02:16:22.776Z,2627.00
2023-05-05T02:17:22.768Z,2609.00
2023-05-05T02:18:22.740Z,2581.00
2023-05-05T02:19:22.755Z,2588.00
2023-05-05T02:20:22.761Z,2570.00
2023-05-05T02:21:22.785Z,2601.00
2023-05-05T02:22:22.786Z,2594.00
2023-05-05T02:23:22.796Z,2555.00
2023-05-05T02:24:22.810Z,2542.00
2023-05-05T02:25:22.818Z,2529.00
2023-05-05T02:26:22.839Z,2508.00
2023-05-05T02:27:22.852Z,2461.00
2023-05-05T02:28:22.864Z,2463.00
2023-05-05T02:29:22.884Z,2435.00
2023-05-05T02:30:22.913Z,2440.00
2023-05-05T02:31:22.976Z,2428.00
2023-05-05T02:32:22.995Z,2411.00
2023-05-05T02:33:22.932Z,2405.00
2023-05-05T02:34:22.935Z,2377.00
2023-05-05T02:35:22.974Z,2348.00
2023-05-05T02:36:22.987Z,2335.00
2023-05-05T02:37:22.978Z,2318.00
2023-05-05T02:38:22.999Z,2325.00
2023-05-05T02:39:23.005Z,2306.00
2023-05-05T02:40:23.017Z,2326.00
2023-05-05T02:41:23.022Z,2315.00
2023-05-05T02:42:23.026Z,2319.00
2023-05-05T02:43:23.145Z,2308.00
2023-05-05T02:44:23.050Z,2293.00
2023-05-05T02:45:23.084Z,2280.00
2023-05-05T02:46:23.133Z,2250.00
2023-05-05T02:47:23.099Z,2214.00
2023-05-05T02:48:23.123Z,2170.00
2023-05-05T02:49:23.124Z,2127.00
2023-05-05T02:50:23.131Z,2116.00
2023-05-05T02:51:23.148Z,2104.00
2023-05-05T02:52:23.173Z,2077.00
2023-05-05T02:53:23.200Z,2081.00
2023-05-05T02:54:23.237Z,2065.00
2023-05-05T02:55:23.255Z,2069.00
2023-05-05T02:56:23.283Z,2057.00
2023-05-05T02:57:23.316Z,2052.00
2023-05-05T02:58:23.327Z,2055.00
2023-05-05T02:59:23.357Z,1986.00
2023-05-05T03:00:23.380Z,1818.00
2023-05-05T03:01:23.455Z,1726.00
2023-05-05T03:02:23.530Z,1566.00
2023-05-05T03:03:23.585Z,1437.00
2023-05-05T03:04:23.518Z,1330.00
2023-05-05T03:05:23.559Z,1180.00
2023-05-05T03:06:23.613Z,1061.00
2023-05-05T03:07:23.680Z,969.00
2023-05-05T03:08:23.751Z,900.00
2023-05-05T03:09:23.821Z,823.00
2023-05-05T03:10:23.911Z,736.00
2023-05-05T03:11:23.994Z,680.00
2023-05-05T03:12:24.097Z,643.00
2023-05-05T03:13:24.192Z,620.00
2023-05-05T03:14:24.259Z,602.00
2023-05-05T03:15:24.314Z,580.00
2023-05-05T03:16:24.402Z,562.00
2023-05-05T03:17:24.391Z,548.00
2023-05-05T03:18:24.425Z,529.00
2023-05-05T03:19:24.487Z,519.00
2023-05-05T03:20:24.530Z,507.00
2023-05-05T03:21:24.558Z,500.00
2023-05-05T03:22:24.619Z,501.00
2023-05-05T03:23:24.667Z,503.00
2023-05-05T03:24:24.677Z,502.00
2023-05-05T03:25:24.725Z,500.00
2023-05-05T03:26:24.756Z,500.00
2023-05-05T03:27:24.796Z,500.00
2023-05-05T03:28:24.829Z,481.00
2023-05-05T03:29:24.864Z,485.00
2023-05-05T03:30:24.925Z,485.00
2023-05-05T03:31:24.971Z,474.00
2023-05-05T03:32:24.985Z,468.00
2023-05-05T03:33:24.986Z,462.00
2023-05-05T03:34:25.029Z,454.00
2023-05-05T03:35:25.058Z,501.00
2023-05-05T03:36:26.127Z,500.00
2023-05-05T03:37:25.152Z,500.00
2023-05-05T03:38:25.238Z,503.00
2023-05-05T03:39:25.217Z,512.00
2023-05-05T03:40:36.188Z,504.00
2023-05-05T03:41:26.294Z,504.00
2023-05-05T03:42:25.336Z,503.00
2023-05-05T03:43:25.362Z,499.00
2023-05-05T03:44:25.400Z,501.00
2023-05-05T03:45:25.412Z,497.00
2023-05-05T03:46:25.446Z,502.00
2023-05-05T03:47:25.476Z,501.00
2023-05-05T03:48:25.515Z,513.00
2023-05-05T03:49:25.549Z,513.00
2023-05-05T03:50:25.588Z,507.00
2023-05-05T03:51:25.633Z,501.00
2023-05-05T03:52:25.678Z,504.00
2023-05-05T03:53:25.718Z,508.00
2023-05-05T03:54:25.751Z,502.00
2023-05-05T03:55:25.812Z,500.00
2023-05-05T03:56:25.831Z,507.00
2023-05-05T03:57:25.869Z,504.00
2023-05-05T03:58:25.911Z,504.00
2023-05-05T03:59:25.947Z,512.00
2023-05-05T04:00:25.986Z,538.00
2023-05-05T04:01:26.028Z,543.00
2023-05-05T04:02:26.134Z,553.00
2023-05-05T04:03:26.318Z,564.00
2023-05-05T04:04:26.250Z,579.00
2023-05-05T04:05:26.282Z,593.00
2023-05-05T04:06:26.329Z,594.00
2023-05-05T04:07:26.357Z,597.00
2023-05-05T04:08:26.402Z,602.00
2023-05-05T04:09:26.440Z,613.00
2023-05-05T04:10:26.486Z,617.00
2023-05-05T04:11:26.505Z,628.00
2023-05-05T04:12:26.540Z,651.00
2023-05-05T04:13:26.602Z,658.00
2023-05-05T04:14:26.626Z,671.00
2023-05-05T04:15:26.656Z,673.00
2023-05-05T04:16:26.746Z,677.00
2023-05-05T04:17:26.760Z,676.00
2023-05-05T04:18:26.784Z,691.00
2023-05-05T04:19:26.820Z,707.00
2023-05-05T04:20:26.867Z,691.00
2023-05-05T04:21:26.894Z,661.00
2023-05-05T04:22:26.935Z,661.00
2023-05-05T04:23:26.969Z,660.00
2023-05-05T04:24:27.006Z,664.00
2023-05-05T04:25:27.054Z,670.00
2023-05-05T04:26:27.091Z,661.00
2023-05-05T04:27:27.126Z,660.00
2023-05-05T04:28:27.177Z,651.00
2023-05-05T04:29:27.220Z,642.00
2023-05-05T04:30:27.304Z,635.00
2023-05-05T04:31:27.371Z,623.00
2023-05-05T04:32:27.457Z,610.00
2023-05-05T04:33:27.539Z,608.00
2023-05-05T04:34:27.632Z,611.00
2023-05-05T04:35:27.704Z,620.00
2023-05-05T04:36:27.774Z,619.00
2023-05-05T04:37:27.897Z,624.00
2023-05-05T04:38:28.047Z,628.00
2023-05-05T04:39:28.023Z,625.00
2023-05-05T04:40:28.106Z,634.00
2023-05-05T04:41:30.014Z,637.00
2023-05-05T04:42:28.284Z,645.00
2023-05-05T04:43:28.368Z,650.00
2023-05-05T04:44:28.456Z,653.00
2023-05-05T04:45:28.544Z,649.00
2023-05-05T04:46:28.694Z,649.00
2023-05-05T04:47:28.751Z,649.00
2023-05-05T04:48:28.836Z,641.00
2023-05-05T04:49:28.920Z,646.00
2023-05-05T04:50:29.027Z,645.00
2023-05-05T04:51:29.130Z,648.00
2023-05-05T04:52:29.216Z,643.00
2023-05-05T04:53:29.322Z,651.00
2023-05-05T04:54:29.416Z,648.00
2023-05-05T04:55:29.508Z,637.00
2023-05-05T04:56:29.616Z,634.00
2023-05-05T04:57:29.727Z,641.00
2023-05-05T04:58:29.822Z,629.00
2023-05-05T04:59:29.903Z,640.00
2023-05-05T05:00:30.011Z,641.00
2023-05-05T05:01:30.075Z,637.00
2023-05-05T05:02:30.151Z,633.00
2023-05-05T05:03:30.189Z,630.00
2023-05-05T05:04:30.188Z,635.00
2023-05-05T05:05:30.217Z,642.00
2023-05-05T05:06:30.261Z,651.00
2023-05-05T05:07:30.310Z,724.00
2023-05-05T05:08:30.357Z,927.00
2023-05-05T05:09:30.387Z,1214.00
2023-05-05T05:10:30.425Z,1306.00
2023-05-05T05:11:30.454Z,1427.00
2023-05-05T05:12:30.544Z,1489.00
2023-05-05T05:13:30.527Z,1521.00
2023-05-05T05:14:30.566Z,1521.00
2023-05-05T05:15:30.602Z,1579.00
2023-05-05T05:16:30.712Z,1633.00
2023-05-05T05:17:30.674Z,1662.00
2023-05-05T05:18:30.701Z,1694.00
2023-05-05T05:19:30.719Z,1740.00
2023-05-05T05:20:30.763Z,1779.00
2023-05-05T05:21:30.785Z,1799.00
2023-05-05T05:22:30.827Z,1830.00
2023-05-05T05:23:30.862Z,1849.00
2023-05-05T05:24:30.907Z,1873.00
2023-05-05T05:25:30.916Z,1914.00
2023-05-05T05:26:30.963Z,1923.00
2023-05-05T05:27:30.964Z,1954.00
2023-05-05T05:28:30.997Z,1958.00
2023-05-05T05:29:31.016Z,1967.00
2023-05-05T05:30:31.085Z,2005.00
2023-05-05T05:31:31.168Z,2008.00
2023-05-05T05:32:31.175Z,2025.00
2023-05-05T05:33:31.231Z,2081.00
2023-05-05T05:34:31.194Z,2199.00
2023-05-05T05:35:31.219Z,2356.00
2023-05-05T05:36:31.247Z,2336.00
2023-05-05T05:37:31.577Z,2185.00
2023-05-05T05:38:31.317Z,2149.00
2023-05-05T05:39:31.323Z,2195.00
2023-05-05T05:40:31.908Z,2332.00
2023-05-05T05:41:31.469Z,2484.00
2023-05-05T05:42:31.443Z,2572.00
2023-05-05T05:43:31.446Z,2690.00
2023-05-05T05:44:31.479Z,2660.00
2023-05-05T05:45:31.501Z,2551.00
2023-05-05T05:46:31.841Z,2589.00
2023-05-05T05:47:31.599Z,2501.00
2023-05-05T05:48:31.624Z,2445.00
2023-05-05T05:49:31.632Z,2344.00
2023-05-05T05:50:31.714Z,2381.00
2023-05-05T05:51:31.694Z,2413.00
2023-05-05T05:52:31.724Z,2477.00
2023-05-05T05:53:31.772Z,2519.00
2023-05-05T05:54:31.797Z,2552.00
2023-05-05T05:55:31.819Z,2581.00
2023-05-05T05:56:31.858Z,2602.00
2023-05-05T05:57:31.893Z,2626.00
2023-05-05T05:58:31.937Z,2675.00
2023-05-05T05:59:31.950Z,2676.00
2023-05-05T06:00:31.990Z,2682.00
2023-05-05T06:01:32.012Z,2688.00
2023-05-05T06:02:32.122Z,2731.00
2023-05-05T06:03:32.158Z,2786.00
2023-05-05T06:04:32.189Z,2829.00
2023-05-05T06:05:32.138Z,2908.00
2023-05-05T06:06:32.185Z,2945.00
2023-05-05T06:07:32.182Z,2936.00
2023-05-05T06:08:32.229Z,2977.00
2023-05-05T06:09:32.316Z,3027.00
2023-05-05T06:10:32.679Z,3059.00
2023-05-05T06:11:32.479Z,3081.00
2023-05-05T06:12:32.519Z,3084.00
2023-05-05T06:13:32.552Z,3099.00
2023-05-05T06:14:32.575Z,3123.00
2023-05-05T06:15:32.584Z,3169.00
2023-05-05T06:16:32.703Z,3265.00
2023-05-05T06:17:32.653Z,3299.00
2023-05-05T06:18:32.678Z,3322.00
2023-05-05T06:19:32.688Z,3279.00
2023-05-05T06:20:32.728Z,3068.00
2023-05-05T06:21:32.752Z,2870.00
2023-05-05T06:22:32.795Z,2817.00
2023-05-05T06:23:32.814Z,2596.00
2023-05-05T06:24:32.875Z,2486.00
2023-05-05T06:25:32.966Z,2315.00
2023-05-05T06:26:33.069Z,2304.00
2023-05-05T06:27:33.158Z,2174.00
2023-05-05T06:28:33.363Z,2188.00
2023-05-05T06:29:33.375Z,2155.00
2023-05-05T06:30:33.452Z,2083.00
2023-05-05T06:31:33.569Z,2041.00
2023-05-05T06:32:33.618Z,2038.00
2023-05-05T06:33:33.704Z,2027.00
2023-05-05T06:34:33.704Z,1904.00
2023-05-05T06:35:33.737Z,1796.00
2023-05-05T06:36:33.795Z,1945.00
2023-05-05T06:37:33.786Z,1749.00
2023-05-05T06:38:33.805Z,1766.00
2023-05-05T06:39:33.833Z,1972.00
2023-05-05T06:40:33.873Z,2184.00
2023-05-05T06:41:33.884Z,2703.00
2023-05-05T06:42:33.932Z,2704.00
2023-05-05T06:43:33.997Z,2394.00
2023-05-05T06:44:34.037Z,2131.00
2023-05-05T06:45:34.088Z,2119.00
2023-05-05T06:46:34.151Z,2134.00
2023-05-05T06:47:34.172Z,1961.00
2023-05-05T06:48:34.211Z,1934.00
2023-05-05T06:49:34.251Z,1867.00
2023-05-05T06:50:34.411Z,1938.00
2023-05-05T06:51:34.339Z,1796.00
2023-05-05T06:52:34.374Z,1797.00
2023-05-05T06:53:34.410Z,1710.00
2023-05-05T06:54:34.445Z,1522.00
2023-05-05T06:55:34.469Z,1363.00
2023-05-05T06:56:34.513Z,1261.00
2023-05-05T06:57:34.551Z,1118.00
2023-05-05T06:58:34.573Z,1019.00
2023-05-05T06:59:34.604Z,952.00
2023-05-05T07:00:34.689Z,984.00
2023-05-05T07:01:34.662Z,907.00
2023-05-05T07:02:34.729Z,866.00
2023-05-05T07:03:34.780Z,883.00
2023-05-05T07:04:34.804Z,848.00
2023-05-05T07:05:34.828Z,843.00
2023-05-05T07:06:34.943Z,820.00
2023-05-05T07:07:34.914Z,768.00
2023-05-05T07:08:34.966Z,823.00
2023-05-05T07:09:34.993Z,868.00
2023-05-05T07:10:35.035Z,913.00
2023-05-05T07:11:35.089Z,943.00
2023-05-05T07:12:35.139Z,971.00
2023-05-05T07:13:35.166Z,931.00
2023-05-05T07:14:35.193Z,985.00
2023-05-05T07:15:35.272Z,891.00
2023-05-05T07:16:35.327Z,841.00
2023-05-05T07:17:35.316Z,873.00
2023-05-05T07:18:35.327Z,817.00
2023-05-05T07:19:35.491Z,751.00
2023-05-05T07:20:35.422Z,740.00
2023-05-05T07:21:35.445Z,780.00
2023-05-05T07:22:35.683Z,822.00
2023-05-05T07:23:35.525Z,809.00
2023-05-05T07:24:35.549Z,820.00
2023-05-05T07:25:35.585Z,788.00
2023-05-05T07:26:35.615Z,789.00
2023-05-05T07:27:35.652Z,781.00
2023-05-05T07:28:35.700Z,787.00
2023-05-05T07:29:35.717Z,783.00
2023-05-05T07:30:35.755Z,759.00
2023-05-05T07:31:35.804Z,789.00
2023-05-05T07:32:35.856Z,790.00
2023-05-05T07:33:35.872Z,791.00
2023-05-05T07:34:35.898Z,794.00
2023-05-05T07:35:35.925Z,806.00
2023-05-05T07:36:35.951Z,835.00
2023-05-05T07:37:35.970Z,980.00
2023-05-05T07:38:36.082Z,1010.00
2023-05-05T07:39:36.047Z,747.00
2023-05-05T07:40:36.051Z,885.00
2023-05-05T07:41:36.088Z,1129.00
2023-05-05T07:42:36.132Z,1218.00
2023-05-05T07:43:36.156Z,1201.00
2023-05-05T07:44:36.166Z,1000.00
2023-05-05T07:45:36.185Z,731.00
2023-05-05T07:46:36.363Z,788.00
2023-05-05T07:47:36.303Z,591.00
2023-05-05T07:48:38.341Z,509.00
2023-05-05T07:49:36.274Z,504.00
2023-05-05T07:50:36.277Z,500.00
2023-05-05T07:51:36.298Z,442.00
2023-05-05T07:52:46.661Z,420.00
2023-05-05T07:53:37.347Z,420.00
2023-05-05T07:54:36.414Z,431.00
2023-05-05T07:55:36.380Z,410.00
2023-05-05T07:56:36.397Z,418.00
2023-05-05T07:57:36.420Z,400.00
2023-05-05T07:58:36.447Z,400.00
2023-05-05T07:59:36.470Z,400.00
2023-05-05T08:00:36.507Z,400.00
2023-05-05T08:01:36.521Z,400.00
2023-05-05T08:02:36.636Z,400.00
2023-05-05T08:03:36.673Z,400.00
2023-05-05T08:04:36.630Z,400.00
2023-05-05T08:05:36.623Z,400.00
2023-05-05T08:06:36.645Z,400.00
2023-05-05T08:07:36.670Z,400.00
2023-05-05T08:08:36.709Z,400.00
2023-05-05T08:09:36.722Z,400.00
2023-05-05T08:10:36.863Z,400.00
2023-05-05T08:11:36.780Z,400.00
2023-05-05T08:12:36.914Z,427.00
2023-05-05T08:13:36.961Z,500.00
2023-05-05T08:14:37.058Z,522.00
2023-05-05T08:15:37.143Z,500.00
2023-05-05T08:16:37.295Z,500.00
2023-05-05T08:17:37.406Z,497.00
2023-05-05T08:18:37.439Z,498.00
2023-05-05T08:19:37.523Z,500.00
2023-05-05T08:20:37.634Z,500.00
2023-05-05T08:21:37.728Z,500.00
2023-05-05T08:22:37.778Z,500.00
2023-05-05T08:23:37.882Z,523.00
2023-05-05T08:24:37.969Z,649.00
2023-05-05T08:25:38.048Z,767.00
2023-05-05T08:26:38.221Z,967.00
2023-05-05T08:27:38.267Z,1095.00
2023-05-05T08:28:38.315Z,1173.00
2023-05-05T08:29:38.409Z,1222.00
2023-05-05T08:30:38.552Z,1246.00
2023-05-05T08:31:38.605Z,1252.00
2023-05-05T08:32:38.710Z,1274.00
2023-05-05T08:33:38.624Z,1301.00
2023-05-05T08:34:38.625Z,1268.00
2023-05-05T08:35:38.638Z,1288.00
2023-05-05T08:36:38.675Z,1120.00
2023-05-05T08:37:38.705Z,1041.00
2023-05-05T08:38:38.715Z,981.00
2023-05-05T08:39:38.740Z,1112.00
2023-05-05T08:40:38.752Z,1027.00
2023-05-05T08:41:38.779Z,1028.00
2023-05-05T08:42:39.575Z,1031.00
2023-05-05T08:43:38.814Z,1040.00
2023-05-05T08:44:38.832Z,1117.00
2023-05-05T08:45:38.854Z,1311.00
2023-05-05T08:46:38.908Z,1530.00
2023-05-05T08:47:39.014Z,1664.00
2023-05-05T08:48:38.936Z,1769.00
2023-05-05T08:49:38.940Z,1768.00
2023-05-05T08:50:38.964Z,1807.00
2023-05-05T08:51:38.981Z,1609.00
2023-05-05T08:52:39.052Z,1430.00
2023-05-05T08:53:39.044Z,1213.00
2023-05-05T08:54:39.068Z,1094.00
2023-05-05T08:55:39.093Z,816.00
2023-05-05T08:56:39.148Z,895.00
2023-05-05T08:57:39.219Z,740.00
2023-05-05T08:58:39.349Z,615.00
2023-05-05T08:59:39.356Z,590.00
2023-05-05T09:00:39.452Z,589.00
2023-05-05T09:01:39.462Z,607.00
2023-05-05T09:02:39.608Z,553.00
2023-05-05T09:03:39.628Z,503.00
2023-05-05T09:04:39.646Z,505.00
2023-05-05T09:05:39.709Z,475.00
2023-05-05T09:06:39.814Z,477.00
2023-05-05T09:07:39.852Z,502.00
2023-05-05T09:08:39.884Z,498.00
2023-05-05T09:09:39.898Z,485.00
2023-05-05T09:10:39.920Z,470.00
2023-05-05T09:11:39.928Z,430.00
2023-05-05T09:12:39.995Z,426.00
2023-05-05T09:13:39.969Z,499.00
2023-05-05T09:14:40.092Z,513.00
2023-05-05T09:15:40.050Z,488.00
2023-05-05T09:16:40.169Z,522.00
2023-05-05T09:17:40.113Z,501.00
2023-05-05T09:18:40.106Z,502.00
2023-05-05T09:19:40.112Z,509.00
2023-05-05T09:20:40.141Z,500.00
2023-05-05T09:21:40.219Z,502.00
2023-05-05T09:22:40.294Z,497.00
2023-05-05T09:23:40.317Z,497.00
2023-05-05T09:24:40.349Z,498.00
2023-05-05T09:25:40.363Z,502.00
2023-05-05T09:26:40.372Z,526.00
2023-05-05T09:27:40.393Z,544.00
2023-05-05T09:28:40.403Z,534.00
2023-05-05T09:29:40.434Z,513.00
2023-05-05T09:30:40.542Z,538.00
2023-05-05T09:31:40.502Z,541.00
2023-05-05T09:32:40.483Z,502.00
2023-05-05T09:33:40.508Z,506.00
2023-05-05T09:34:40.581Z,560.00
2023-05-05T09:35:40.584Z,561.00
2023-05-05T09:36:40.616Z,568.00
2023-05-05T09:37:40.647Z,570.00
2023-05-05T09:38:40.666Z,583.00
2023-05-05T09:39:40.659Z,585.00
2023-05-05T09:40:40.693Z,550.00
2023-05-05T09:41:40.700Z,574.00
2023-05-05T09:42:40.730Z,605.00
2023-05-05T09:43:40.732Z,785.00
2023-05-05T09:44:40.793Z,1072.00
2023-05-05T09:45:40.774Z,1240.00
2023-05-05T09:46:40.937Z,1393.00
2023-05-05T09:47:40.985Z,1585.00
2023-05-05T09:48:40.965Z,1586.00
2023-05-05T09:49:40.924Z,1589.00
2023-05-05T09:50:40.997Z,1603.00
2023-05-05T09:51:40.956Z,1824.00
2023-05-05T09:52:40.980Z,1750.00
2023-05-05T09:53:40.989Z,1872.00
2023-05-05T09:54:41.000Z,2247.00
2023-05-05T09:55:41.040Z,2530.00
2023-05-05T09:56:41.045Z,2717.00
2023-05-05T09:57:41.064Z,2825.00
2023-05-05T09:58:41.112Z,3010.00
2023-05-05T09:59:41.062Z,3183.00
2023-05-05T10:00:41.064Z,3189.00
2023-05-05T10:01:41.092Z,3232.00
2023-05-05T10:02:41.216Z,3356.00
2023-05-05T10:03:41.105Z,3581.00
2023-05-05T10:04:41.136Z,3883.00
2023-05-05T10:05:41.133Z,4077.00
2023-05-05T10:06:41.141Z,4178.00
2023-05-05T10:07:41.171Z,4232.00
2023-05-05T10:08:41.160Z,4356.00
2023-05-05T10:09:41.154Z,4357.00
2023-05-05T10:10:41.153Z,4363.00
2023-05-05T10:11:41.158Z,4359.00
2023-05-05T10:12:41.220Z,4398.00
2023-05-05T10:13:41.152Z,4517.00
2023-05-05T10:14:41.157Z,4608.00
2023-05-05T10:15:41.160Z,4647.00
2023-05-05T10:16:41.191Z,4689.00
2023-05-05T10:17:44.052Z,4651.00
2023-05-05T10:18:42.338Z,4652.00
2023-05-05T10:19:41.159Z,4654.00
2023-05-05T10:20:41.159Z,4669.00
2023-05-05T10:21:42.058Z,4662.00
2023-05-05T10:22:41.139Z,4652.00
2023-05-05T10:23:41.153Z,4621.00
2023-05-05T10:24:41.172Z,4493.00
2023-05-05T10:25:41.171Z,4473.00
2023-05-05T10:26:41.184Z,4695.00
2023-05-05T10:27:41.166Z,4556.00
2023-05-05T10:28:41.150Z,4606.00
2023-05-05T10:29:41.158Z,4385.00
2023-05-05T10:30:41.147Z,3760.00
2023-05-05T10:31:41.169Z,3482.00
2023-05-05T10:33:41.222Z,3432.00
2023-05-05T10:34:41.275Z,3533.00
2023-05-05T10:35:41.160Z,3661.00
2023-05-05T10:36:41.158Z,3473.00
2023-05-05T10:37:41.168Z,3378.00
2023-05-05T10:38:41.150Z,3420.00
2023-05-05T10:39:41.157Z,3571.00
2023-05-05T10:40:41.164Z,3817.00
2023-05-05T10:41:41.155Z,3874.00
2023-05-05T10:42:41.145Z,4009.00
2023-05-05T10:43:41.139Z,4104.00
2023-05-05T10:44:41.139Z,4104.00
2023-05-05T10:45:41.185Z,4142.00
2023-05-05T10:46:41.285Z,4217.00
2023-05-05T10:47:41.159Z,4290.00
2023-05-05T10:48:41.187Z,4224.00
2023-05-05T10:49:41.115Z,3962.00
2023-05-05T10:50:41.169Z,3475.00
2023-05-05T10:51:41.382Z,3346.00
2023-05-05T10:52:41.093Z,3393.00
2023-05-05T10:53:41.124Z,3227.00
2023-05-05T10:54:41.095Z,3098.00
2023-05-05T10:55:41.105Z,3091.00
2023-05-05T10:56:41.094Z,3227.00
2023-05-05T10:57:41.085Z,3338.00
2023-05-05T10:58:58.372Z,3297.00
2023-05-05T10:59:42.117Z,3277.00
2023-05-05T11:00:41.109Z,3133.00
2023-05-05T11:01:41.076Z,2993.00
2023-05-05T11:02:41.111Z,2848.00
2023-05-05T11:03:41.104Z,2674.00
2023-05-05T11:04:41.077Z,2629.00
2023-05-05T11:05:41.078Z,2723.00
2023-05-05T11:06:41.207Z,2744.00
2023-05-05T11:07:41.077Z,2797.00
2023-05-05T11:08:41.125Z,2878.00
2023-05-05T11:09:41.156Z,2852.00
2023-05-05T11:10:41.201Z,2797.00
2023-05-05T11:11:41.259Z,2586.00
2023-05-05T11:12:41.363Z,2540.00
2023-05-05T11:13:41.361Z,2616.00
2023-05-05T11:14:41.414Z,2709.00
2023-05-05T11:15:41.511Z,2772.00
2023-05-05T11:16:41.595Z,2747.00
2023-05-05T11:17:41.611Z,2491.00
2023-05-05T11:18:41.639Z,1957.00
2023-05-05T11:19:41.700Z,1945.00
2023-05-05T11:20:41.740Z,1678.00
2023-05-05T11:21:41.822Z,1529.00
2023-05-05T11:22:41.877Z,1468.00
2023-05-05T11:23:41.943Z,1468.00
2023-05-05T11:24:42.011Z,1187.00
2023-05-05T11:25:42.141Z,1229.00
2023-05-05T11:26:42.141Z,1071.00
2023-05-05T11:27:42.210Z,902.00
2023-05-05T11:28:42.274Z,1047.00
2023-05-05T11:29:42.357Z,967.00
2023-05-05T11:30:42.434Z,883.00
2023-05-05T11:31:42.520Z,856.00
2023-05-05T11:32:42.551Z,827.00
2023-05-05T11:33:42.606Z,722.00
2023-05-05T11:34:42.668Z,688.00
2023-05-05T11:35:42.730Z,705.00
2023-05-05T11:36:42.797Z,794.00
2023-05-05T11:37:42.876Z,1024.00
2023-05-05T11:38:43.006Z,1132.00
2023-05-05T11:39:43.011Z,1315.00
2023-05-05T11:40:43.055Z,1303.00
2023-05-05T11:41:43.125Z,1157.00
2023-05-05T11:42:43.192Z,1471.00
2023-05-05T11:43:43.194Z,1397.00
2023-05-05T11:44:43.197Z,1312.00
2023-05-05T11:45:43.215Z,1489.00
2023-05-05T11:46:43.247Z,1503.00
2023-05-05T11:47:43.224Z,1401.00
2023-05-05T11:48:43.198Z,1219.00
2023-05-05T11:49:43.204Z,1345.00
2023-05-05T11:50:43.196Z,1201.00
2023-05-05T11:51:43.267Z,1088.00
2023-05-05T11:52:43.205Z,1132.00
2023-05-05T11:53:43.198Z,1181.00
2023-05-05T11:54:43.267Z,1367.00
2023-05-05T11:55:43.215Z,1532.00
2023-05-05T11:56:43.221Z,1712.00
2023-05-05T11:57:43.221Z,1716.00
2023-05-05T11:58:43.213Z,1752.00
2023-05-05T11:59:43.200Z,1818.00
2023-05-05T12:00:43.193Z,1938.00
2023-05-05T12:01:43.198Z,2122.00
2023-05-05T12:02:43.254Z,2182.00
2023-05-05T12:03:43.429Z,2198.00
2023-05-05T12:04:43.207Z,2193.00
2023-05-05T12:05:43.158Z,2256.00
2023-05-05T12:06:43.245Z,2312.00
2023-05-05T12:07:43.276Z,2321.00
2023-05-05T12:08:43.341Z,2353.00
2023-05-05T12:09:43.410Z,2384.00
2023-05-05T12:10:43.536Z,2476.00
2023-05-05T12:11:43.519Z,2537.00
2023-05-05T12:12:43.630Z,2441.00
2023-05-05T12:13:43.648Z,2339.00
2023-05-05T12:14:43.717Z,2285.00